Latest Coastal Weather Observations for Rosslyn Bay Harbour

IDQ60701

Issued at 2:01 pm EST Friday 24 February 2017 (issued every 10 minutes, with the page automatically refreshed every 10 minutes)

About coastal observations | Map of coastal stations | Coastal observations for QLD | Marine services | Other Formats
Station Details ID: 033208 Name: ROSSLYN BAY NTC AWS Lat: -23.16 Lon: 150.79 Height: 0.0 m
Data from the previous 72 hours. | See also: Recent months for locations in Queensland
Date/Time
EST
Temp
°C
Wind Pressure Rain since
9am
mm
Weather Cloud Vis
km
Sea
Height
m
Swell
Dir  Spd
kts
Gust
kts
hPa Trend Height
m
Period
s
Dir
24/01:30pm 27.7 S 10 16 1014.0 - - - - - - - - -
24/01:00pm 28.0 S 8 13 1014.2 - - - - - - - - -
24/12:30pm 27.3 S 9 13 1014.6 - - - - - - - - -
24/12:00pm 27.4 S 9 14 1014.9 - - - - - - - - -
24/11:30am 26.9 S 9 15 1015.1 - - - - - - - - -
24/11:00am 27.1 S 9 16 1015.6 - - - - - - - - -
24/10:30am 27.4 S 6 12 1015.6 - - - - - - - - -
24/10:00am 26.7 S 6 13 1015.8 - - - - - - - - -
24/09:30am 26.5 S 6 10 1016.0 - - - - - - - - -
24/09:00am 26.2 S 8 17 1016.0 - - - - - - - - -
24/08:30am 26.1 S 8 15 1015.7 - - - - - - - - -
24/08:00am 25.8 S 6 13 1015.7 - - - - - - - - -
24/07:30am 25.6 S 5 12 1015.6 - - - - - - - - -
24/07:00am 25.3 S 5 11 1015.5 - - - - - - - - -
24/06:30am 25.0 S 6 10 1015.2 - - - - - - - - -
24/06:00am 25.0 S 6 12 1015.0 - - - - - - - - -
24/05:30am 25.0 S 6 16 1014.7 - - - - - - - - -
24/05:00am 25.1 S 7 13 1014.6 - - - - - - - - -
24/04:30am 25.3 S 5 12 1014.5 - - - - - - - - -
24/04:00am 25.8 S 6 15 1014.3 - - - - - - - - -
24/03:30am 26.1 S 8 18 1014.1 - - - - - - - - -
24/03:00am 26.0 S 7 17 1014.2 - - - - - - - - -
24/02:30am 26.3 S 8 17 1014.3 - - - - - - - - -
24/02:00am 26.9 S 11 17 1014.5 - - - - - - - - -
24/01:30am 26.9 S 9 15 1015.0 - - - - - - - - -
24/01:00am 27.0 S 9 21 1015.4 - - - - - - - - -
24/12:30am 27.1 S 10 18 1015.7 - - - - - - - - -
24/12:00am 27.3 S 11 17 1015.7 - - - - - - - - -
 
Date/Time
EST
Temp
°C
Wind Pressure Rain since
9am
mm
Weather Cloud Vis
km
Sea
Height
m
Swell
Dir  Spd
kts
Gust
kts
hPa Trend Height
m
Period
s
Dir
23/11:30pm 27.4 S 11 17 1015.9 - - - - - - - - -
23/11:00pm 27.4 S 10 16 1015.8 - - - - - - - - -
23/10:30pm 27.4 S 9 15 1016.0 - - - - - - - - -
23/10:00pm 27.4 S 9 15 1016.0 - - - - - - - - -
23/09:30pm 27.4 S 8 15 1015.9 - - - - - - - - -
23/09:00pm 27.5 S 7 12 1015.7 - - - - - - - - -
23/08:30pm 27.6 S 5 11 1015.4 - - - - - - - - -
23/08:00pm 27.6 SSW 4 11 1015.0 - - - - - - - - -
23/07:30pm 27.6 S 5 11 1014.9 - - - - - - - - -
23/07:00pm 27.6 SSW 3 10 1014.7 - - - - - - - - -
23/06:30pm 27.7 SSW 3 8 1014.4 - - - - - - - - -
23/06:00pm 27.9 S 5 12 1014.1 - - - - - - - - -
23/05:30pm 28.1 S 6 12 1013.9 - - - - - - - - -
23/05:00pm 28.5 S 4 9 1013.6 - - - - - - - - -
23/04:30pm 28.5 S 5 11 1013.6 - - - - - - - - -
23/04:00pm 28.6 S 4 9 1013.6 - - - - - - - - -
23/03:30pm 28.8 SSW 3 10 1013.6 - - - - - - - - -
23/03:00pm 28.3 S 6 14 1014.0 - - - - - - - - -
23/02:30pm 28.4 S 5 12 1014.3 - - - - - - - - -
23/02:00pm 28.0 S 8 15 1014.6 - - - - - - - - -
23/01:30pm 28.0 S 7 13 1014.9 - - - - - - - - -
23/01:00pm 27.4 S 11 18 1015.1 - - - - - - - - -
23/12:30pm 27.4 S 10 14 1015.6 - - - - - - - - -
23/12:00pm 27.2 S 10 15 1015.8 - - - - - - - - -
23/11:30am 27.1 S 11 18 1016.2 - - - - - - - - -
23/11:00am 27.1 S 9 16 1016.4 - - - - - - - - -
23/10:30am 26.8 S 10 18 1016.6 - - - - - - - - -
23/10:00am 26.8 S 10 19 1016.6 - - - - - - - - -
23/09:30am 26.5 S 10 18 1016.6 - - - - - - - - -
23/09:00am 26.3 S 9 17 1016.8 - - - - - - - - -
23/08:30am 26.2 S 9 18 1016.7 - - - - - - - - -
23/08:00am 26.1 S 9 17 1016.4 - - - - - - - - -
23/07:30am 25.9 S 8 17 1016.2 - - - - - - - - -
23/07:00am 25.6 S 8 18 1015.8 - - - - - - - - -
23/06:30am 25.6 S 7 17 1015.7 - - - - - - - - -
23/06:00am 25.7 S 8 18 1015.3 - - - - - - - - -
23/05:30am 25.8 S 6 15 1015.1 - - - - - - - - -
23/05:00am 25.7 S 6 17 1014.8 - - - - - - - - -
23/04:30am 25.9 S 9 18 1014.5 - - - - - - - - -
23/04:00am 26.0 S 7 16 1014.4 - - - - - - - - -
23/03:30am 26.2 S 9 19 1014.4 - - - - - - - - -
23/03:00am 26.3 S 10 17 1014.3 - - - - - - - - -
23/02:30am 26.3 S 10 19 1014.4 - - - - - - - - -
23/02:00am 26.9 S 11 21 1014.5 - - - - - - - - -
23/01:30am 26.9 S 11 20 1014.7 - - - - - - - - -
23/01:00am 26.9 S 12 19 1014.9 - - - - - - - - -
23/12:30am 27.1 S 11 21 1015.3 - - - - - - - - -
23/12:00am 27.1 S 10 18 1015.7 - - - - - - - - -
 
Date/Time
EST
Temp
°C
Wind Pressure Rain since
9am
mm
Weather Cloud Vis
km
Sea
Height
m
Swell
Dir  Spd
kts
Gust
kts
hPa Trend Height
m
Period
s
Dir
22/11:30pm 27.2 S 11 19 1015.7 - - - - - - - - -
22/11:00pm 27.3 S 12 21 1016.1 - - - - - - - - -
22/10:30pm 27.3 S 13 20 1016.1 - - - - - - - - -
22/10:00pm 27.4 S 13 22 1015.9 - - - - - - - - -
22/09:30pm 27.5 S 12 19 1015.7 - - - - - - - - -
22/09:00pm 27.7 S 11 19 1015.5 - - - - - - - - -
22/08:30pm 27.7 S 11 18 1015.2 - - - - - - - - -
22/08:00pm 27.7 S 12 19 1014.8 - - - - - - - - -
22/07:30pm 27.7 S 9 16 1014.7 - - - - - - - - -
22/07:00pm 27.7 S 10 17 1014.2 - - - - - - - - -
22/06:30pm 27.9 S 9 16 1014.1 - - - - - - - - -
22/06:00pm 27.9 S 8 16 1013.9 - - - - - - - - -
22/05:30pm 28.1 S 8 16 1013.7 - - - - - - - - -
22/05:00pm 28.4 S 8 17 1013.3 - - - - - - - - -
22/04:30pm 28.5 S 8 16 1013.3 - - - - - - - - -
22/04:00pm 28.5 S 11 19 1013.3 - - - - - - - - -
22/03:30pm 28.5 S 13 21 1013.2 - - - - - - - - -
22/03:00pm 28.4 S 13 20 1013.3 - - - - - - - - -
22/02:30pm 28.3 S 13 20 1013.5 - - - - - - - - -
22/02:00pm 28.1 S 12 20 1013.7 - - - - - - - - -
22/01:30pm 28.1 S 12 22 1013.8 - - - - - - - - -
22/01:00pm 27.8 S 13 21 1014.1 - - - - - - - - -
22/12:30pm 27.3 S 11 19 1014.6 - - - - - - - - -
22/12:00pm 27.4 S 11 24 1014.8 - - - - - - - - -
22/11:30am 27.4 S 10 16 1015.1 - - - - - - - - -
22/11:00am 27.2 S 11 20 1015.5 - - - - - - - - -
22/10:30am 26.9 S 11 21 1015.7 - - - - - - - - -
22/10:00am 26.7 S 10 18 1016.0 - - - - - - - - -
22/09:30am 25.4 S 14 20 1016.1 - - - - - - - - -
22/09:00am 25.7 S 9 15 1016.0 - - - - - - - - -
22/08:30am 26.6 S 10 17 1015.9 - - - - - - - - -
22/08:00am 26.7 S 8 18 1015.8 - - - - - - - - -
22/07:30am 26.8 S 8 18 1015.4 - - - - - - - - -
22/07:00am 26.7 S 7 16 1015.2 - - - - - - - - -
22/06:30am 26.9 S 6 14 1014.9 - - - - - - - - -
22/06:00am 26.9 S 7 17 1014.5 - - - - - - - - -
22/05:30am 27.9 S 11 17 1014.3 - - - - - - - - -
22/05:00am 27.8 S 13 20 1013.9 - - - - - - - - -
22/04:30am 27.8 S 10 18 1013.6 - - - - - - - - -
22/04:00am 27.8 S 12 17 1013.4 - - - - - - - - -
22/03:30am 27.8 S 11 17 1013.2 - - - - - - - - -
22/03:00am 27.9 S 11 18 1013.3 - - - - - - - - -
22/02:30am 27.8 S 10 16 1013.4 - - - - - - - - -
22/02:00am 27.8 S 10 16 1013.6 - - - - - - - - -
22/01:30am 27.8 S 9 16 1013.6 - - - - - - - - -
22/01:00am 27.9 S 10 16 1013.8 - - - - - - - - -
22/12:30am 27.9 S 12 18 1014.0 - - - - - - - - -
22/12:00am 27.9 S 7 15 1014.3 - - - - - - - - -
 
Date/Time
EST
Temp
°C
Wind Pressure Rain since
9am
mm
Weather Cloud Vis
km
Sea
Height
m
Swell
Dir  Spd
kts
Gust
kts
hPa Trend Height
m
Period
s
Dir
21/11:30pm 28.0 S 6 13 1014.4 - - - - - - - - -
21/11:00pm 28.0 S 7 13 1014.6 - - - - - - - - -
21/10:30pm 28.1 S 7 12 1014.7 - - - - - - - - -
21/10:00pm 28.1 S 7 14 1014.6 - - - - - - - - -
21/09:30pm 28.2 S 6 13 1014.6 - - - - - - - - -
21/09:00pm 28.3 SSW 4 12 1014.5 - - - - - - - - -
21/08:30pm 28.2 S 5 12 1014.4 - - - - - - - - -
21/08:00pm 28.3 S 5 10 1014.2 - - - - - - - - -
21/07:30pm 28.3 SSW 3 9 1013.8 - - - - - - - - -
21/07:00pm 28.2 S 5 13 1013.4 - - - - - - - - -
21/06:30pm 28.4 SSW 5 10 1013.1 - - - - - - - - -
21/06:00pm 28.6 SW 3 10 1013.0 - - - - - - - - -
21/05:30pm 28.9 SW 4 10 1012.8 - - - - - - - - -
21/05:00pm 29.2 WSW 4 11 1012.5 - - - - - - - - -
21/04:30pm 28.8 WNW 4 13 1012.2 - - - - - - - - -
21/04:00pm 29.0 S 5 11 1012.3 - - - - - - - - -
21/03:30pm 29.1 S 5 13 1012.1 - - - - - - - - -
21/03:00pm 29.7 S 3 8 1012.1 - - - - - - - - -
21/02:30pm 29.1 S 6 12 1012.4 - - - - - - - - -

Other Formats:

Comma delimited format used in spreadsheet applications
http://www.bom.gov.au/fwo/IDQ60701/IDQ60701.95298.axf

JavaScript Object Notation format (JSON) in row-major order
http://www.bom.gov.au/fwo/IDQ60701/IDQ60701.95298.json